Monday, January 21, 2019, 5:19 PM EST
Back to Local

KAQW, N Adams Harriman-and-west

Location: North Adams, MA, United States Lat: 42.7
Local Time: 5:19 PM EST (22:19 GMT) Lon: -73.167
Time Zone: US/Eastern Elev: 652 ft

Show me the last for .
Show Decoded

2019-01-21 16:52 METAR KAQW 212152Z AUTO 28015G26KT 6SM UP OVC038 M18/M23 A3002 RMK AO2 PK WND
                 28032/2140 UPB2057E21B27SNB21E27 SLP186 P0000 T11781233 =
2019-01-21 16:26 METAR KAQW 212126Z AUTO 27017G30KT 3SM -SN OVC039 M18/M23 A3000 RMK AO2 PK WND
                 28030/2120 UPB2057E21SNB21 P0000 T11781228 =
2019-01-21 16:18 METAR KAQW 212118Z AUTO 28013G29KT 2 1/2SM UP OVC038 M18/M23 A3000 RMK AO2 PK
                 WND 27029/2109 UPB2057 P0000 T11781228 =
2019-01-21 15:52 METAR KAQW 212052Z AUTO 27017G32KT 8SM OVC039 M18/M24 A2999 RMK AO2 PK WND
                 26032/2043 SLP174 60000 T11781239 53018 =
2019-01-21 14:52 METAR KAQW 211952Z AUTO 26015G22KT 10SM OVC040 M18/M24 A2995 RMK AO2 PK WND
                 27027/1904 SLP160 T11781239 =
2019-01-21 13:52 METAR KAQW 211852Z AUTO 27014G24KT 10SM BKN038 M19/M26 A2993 RMK AO2
                 UPB28E47SNE28 SLP155 P0000 T11891256 =
2019-01-21 13:30 METAR KAQW 211830Z AUTO 27017G23KT 4SM UP OVC035 M19/M25 A2993 RMK AO2
                 UPB28SNE28 P0000 T11941250 =
2019-01-21 12:52 METAR KAQW 211752Z AUTO 27013G20KT 2 1/2SM -SN OVC031 M20/M26 A2993 RMK AO2 PK
                 WND 27026/1714 SLP156 P0000 60000 T12001256 11200 21228 51002 =
2019-01-21 11:52 METAR KAQW 211652Z AUTO 29013G23KT 2SM -SN BKN029 OVC036 M21/M26 A2993 RMK AO2
                 SLP153 P0000 T12061256 =
2019-01-21 11:40 METAR KAQW 211640Z AUTO 27015G20KT 2SM -SN BKN027 OVC036 M21/M26 A2993 RMK AO2
                 P0000 T12111256 =
2019-01-21 11:32 METAR KAQW 211632Z AUTO 27016G23KT 1 3/4SM -SN BKN027 OVC034 M21/M26 A2993 RMK
                 AO2 P0000 T12111261 =
2019-01-21 11:23 METAR KAQW 211623Z AUTO 27016KT 1 1/4SM -SN BKN025 OVC032 M21/M26 A2994 RMK AO2
                 P0000 T12111261 =
2019-01-21 10:52 METAR KAQW 211552Z AUTO 27016G27KT 1 1/2SM -SN BKN029 OVC036 M22/M26 A2994 RMK
                 AO2 PK WND 26027/1547 SLP158 P0000 T12171261 =
2019-01-21 10:37 METAR KAQW 211537Z AUTO 27015G21KT 1 3/4SM -SN OVC032 M22/M26 A2994 RMK AO2
                 P0000 T12171261 =
2019-01-21 10:24 METAR KAQW 211524Z AUTO 27014KT 2SM -SN BKN028 OVC036 M22/M26 A2994 RMK AO2
                 P0000 T12171261 =
2019-01-21 09:52 METAR KAQW 211452Z AUTO 28010KT 1 3/4SM -SN BKN029 OVC036 M22/M27 A2993 RMK AO2
                 UPE24SNB41 SLP154 P0000 60000 T12221267 51021 =
2019-01-21 09:49 METAR KAQW 211449Z AUTO 28010KT 1 3/4SM -SN BKN029 OVC036 M22/M27 A2993 RMK AO2
                 UPE24SNB41 P0000 =
2019-01-21 08:52 METAR KAQW 211352Z AUTO 27008G19KT 8SM UP SCT034 OVC041 M22/M28 A2990 RMK AO2
                 UPB50 SLP145 P0000 T12221278 =
2019-01-21 07:52 METAR KAQW 211252Z AUTO 28009G21KT 10SM OVC037 M22/M27 A2987 RMK AO2 SLP133
                 T12221272 $ =
2019-01-21 06:52 METAR KAQW 211152Z AUTO 27014G22KT 6SM HZ OVC032 M22/M26 A2983 RMK AO2 PK WND
                 27027/1120 UPB1053E49 SLP121 P0000 60000 70015 T12221261 11189 21222 53017 $ =
2019-01-21 05:52 METAR KAQW 211052Z AUTO 27017G23KT 7SM OVC030 M22/M26 A2980 RMK AO2 UPB08E18
                 SLP108 P0000 T12171261 $ =
2019-01-21 04:52 METAR KAQW 210952Z AUTO 28013KT 9SM OVC029 M21/M26 A2978 RMK AO2 SLP103
                 T12111256 $ =
2019-01-21 04:47 METAR KAQW 210947Z AUTO 28012KT 10SM OVC029 M21/M26 A2978 RMK AO2 $ =
2019-01-21 03:52 METAR KAQW 210852Z AUTO 26013KT 10SM OVC032 M21/M26 A2978 RMK AO2 UPE0753 SLP099
                 P0000 60000 T12061256 51027 $ =
2019-01-21 03:23 METAR KAQW 210823Z AUTO 26015KT 10SM OVC031 M21/M26 A2976 RMK AO2 UPE0753 P0000
                 T12061256 $ =
2019-01-21 02:52 METAR KAQW 210752Z AUTO 26016G22KT 5SM UP OVC028 M21/M25 A2976 RMK AO2 PK WND
                 28026/0738 UPE01B29 SLP094 P0000 T12061250 $ =
2019-01-21 01:52 METAR KAQW 210652Z AUTO 26018G27KT 6SM UP OVC033 M19/M24 A2973 RMK AO2 PK WND
                 27030/0601 SLP083 P0000 T11941244 $ =
2019-01-21 00:52 METAR KAQW 210552Z AUTO 26018G23KT 5SM UP M19/M23 A2969 RMK AO2 UPE0459B45
                 SLP070 P0000 60000 T11891233 11150 21189 $ =
2019-01-20 23:52 METAR KAQW 210452Z AUTO 27015G29KT 8SM UP OVC031 M18/M23 A2968 RMK AO2 PK WND
                 27031/0418 UPB44 SLP064 P0000 T11831228 410441183 =
2019-01-20 22:52 METAR KAQW 210352Z AUTO 27018G33KT 10SM BKN030 OVC037 M17/M22 A2966 RMK AO2 PK
                 WND 27033/0343 SLP056 T11671217 =
2019-01-20 21:52 METAR KAQW 210252Z AUTO 28013KT 10SM OVC035 M17/M22 A2963 RMK AO2 SLP048 60000
                 T11671217 53009 =
2019-01-20 20:52 METAR KAQW 210152Z AUTO 29012G24KT 10SM SCT027 BKN033 OVC041 M16/M21 A2963 RMK
                 AO2 PK WND 27028/0104 UPB37E47SNE37 SLP045 P0000 T11611206 =
2019-01-20 20:35 METAR KAQW 210135Z AUTO 29014G21KT 4SM -SN FEW026 OVC033 M16/M19 A2963 RMK AO2
                 PK WND 27028/0104 P0000 T11611194 =
2019-01-20 20:24 METAR KAQW 210124Z AUTO 30013G22KT 2 1/2SM -SN SCT026 OVC033 M16/M19 A2963 RMK
                 AO2 PK WND 27028/0104 P0000 T11611189 =
2019-01-20 20:21 METAR KAQW 210121Z AUTO 28012G22KT 3SM -SN BKN026 OVC033 M16/M19 A2963 RMK AO2
                 PK WND 27028/0104 P0000 T11611189 =
2019-01-20 19:52 METAR KAQW 210052Z AUTO 28011G24KT 2SM -SN BKN024 OVC030 M16/M18 A2961 RMK AO2
                 SLP041 P0000 T11561183 =
2019-01-20 19:48 METAR KAQW 210048Z AUTO 27018G24KT 2SM -SN FEW018 BKN024 OVC030 M16/M18 A2961
                 RMK AO2 P0000 =
2019-01-20 19:18 METAR KAQW 210018Z AUTO 27016G22KT 4SM -SN OVC027 M15/M18 A2959 RMK AO2 P0000
                 T11501183 =
2019-01-20 18:52 METAR KAQW 202352Z AUTO 28014G23KT 2 1/2SM -SN OVC026 M15/M18 A2958 RMK AO2
                 SLP028 P0000 60000 T11501178 11094 21150 51029 =
2019-01-20 18:48 METAR KAQW 202348Z AUTO 28017G23KT 3SM -SN FEW017 OVC026 M15/M18 A2957 RMK AO2
                 P0000 =
2019-01-20 18:34 METAR KAQW 202334Z AUTO 29013G22KT 2SM -SN SCT015 OVC024 M14/M17 A2956 RMK AO2
                 P0000 T11441172 =
2019-01-20 18:25 METAR KAQW 202325Z AUTO 28015G21KT 1 3/4SM -SN BR BKN015 OVC024 M14/M17 A2956
                 RMK AO2 P0000 T11441167 =
2019-01-20 18:16 METAR KAQW 202316Z AUTO 28013G21KT 1SM -SN BR BKN013 OVC022 M14/M16 A2955 RMK
                 AO2 P0000 T11391161 =
2019-01-20 18:11 METAR KAQW 202311Z AUTO 28014G23KT 1 3/4SM -SN FEW013 OVC022 M13/M16 A2955 RMK
                 AO2 P0000 T11331161 =
2019-01-20 17:52 METAR KAQW 202252Z AUTO 27019G25KT 4SM -SN OVC023 M13/M17 A2954 RMK AO2 PK WND
                 27026/2219 SLP016 P0000 T11331167 =

Support USWX by starting your Amazon purchase here.